createdAt,value
2023-05-20T00:00:30.206Z,2.57
2023-05-20T00:03:02.763Z,3.03
2023-05-20T00:05:35.249Z,3.23
2023-05-20T00:08:28.538Z,2.80
2023-05-20T00:11:05.649Z,2.77
2023-05-20T00:13:37.267Z,2.83
2023-05-20T00:16:07.342Z,2.93
2023-05-20T00:18:39.582Z,3.50
2023-05-20T00:21:14.233Z,3.33
2023-05-20T00:23:44.449Z,2.97
2023-05-20T00:26:17.633Z,2.90
2023-05-20T00:28:49.266Z,3.07
2023-05-20T00:31:18.025Z,3.40
2023-05-20T00:33:52.523Z,3.37
2023-05-20T00:36:21.441Z,3.17
2023-05-20T00:38:52.833Z,3.23
2023-05-20T00:41:23.560Z,3.20
2023-05-20T00:43:54.859Z,3.30
2023-05-20T00:46:27.669Z,3.33
2023-05-20T00:48:56.061Z,3.00
2023-05-20T00:51:24.315Z,3.17
2023-05-20T00:53:52.481Z,3.17
2023-05-20T00:56:21.730Z,3.40
2023-05-20T00:58:52.026Z,3.20
2023-05-20T01:01:20.151Z,3.27
2023-05-20T01:03:49.950Z,3.50
2023-05-20T01:06:18.005Z,3.20
2023-05-20T01:08:46.108Z,3.57
2023-05-20T01:11:20.161Z,3.40
2023-05-20T01:13:53.876Z,3.43
2023-05-20T01:16:26.165Z,3.97
2023-05-20T01:18:58.748Z,3.40
2023-05-20T01:21:31.730Z,3.37
2023-05-20T01:24:04.139Z,3.40
2023-05-20T01:26:33.614Z,3.40
2023-05-20T01:29:04.972Z,3.53
2023-05-20T01:31:41.205Z,3.97
2023-05-20T01:34:09.818Z,3.63
2023-05-20T01:36:38.748Z,3.97
2023-05-20T01:39:14.044Z,3.43
2023-05-20T01:41:44.608Z,3.47
2023-05-20T01:44:13.095Z,3.73
2023-05-20T01:46:41.305Z,3.77
2023-05-20T01:49:10.679Z,4.00
2023-05-20T01:51:38.949Z,3.53
2023-05-20T01:54:07.097Z,4.10
2023-05-20T01:56:38.554Z,3.87
2023-05-20T01:59:07.762Z,3.70
2023-05-20T02:01:35.872Z,3.93
2023-05-20T02:04:06.786Z,4.13
2023-05-20T02:06:35.021Z,4.67
2023-05-20T02:09:05.332Z,4.47
2023-05-20T02:11:33.436Z,4.33
2023-05-20T02:14:03.049Z,4.50
2023-05-20T02:16:32.376Z,3.87
2023-05-20T02:19:04.480Z,4.57
2023-05-20T02:21:32.692Z,4.10
2023-05-20T02:24:03.048Z,4.20
2023-05-20T02:26:34.251Z,4.50
2023-05-20T02:29:07.910Z,4.70
2023-05-20T02:31:36.707Z,4.67
2023-05-20T02:34:05.991Z,4.93
2023-05-20T02:36:35.628Z,4.53
2023-05-20T02:39:11.032Z,5.10
2023-05-20T02:41:48.690Z,5.00
2023-05-20T02:44:18.148Z,5.03
2023-05-20T02:46:46.355Z,5.07
2023-05-20T02:49:18.148Z,4.90
2023-05-20T02:51:46.274Z,5.60
2023-05-20T02:54:16.016Z,4.50
2023-05-20T02:56:44.109Z,4.90
2023-05-20T02:59:12.419Z,5.33
2023-05-20T03:01:46.911Z,5.33
2023-05-20T03:07:20.092Z,5.77
2023-05-20T03:09:48.910Z,5.50
2023-05-20T03:12:18.384Z,5.37
2023-05-20T03:14:48.641Z,5.07
2023-05-20T03:17:21.324Z,5.50
2023-05-20T03:19:52.072Z,5.50
2023-05-20T03:22:21.685Z,5.60
2023-05-20T03:24:55.365Z,5.60
2023-05-20T03:27:26.642Z,5.90
2023-05-20T03:29:58.114Z,5.50
2023-05-20T03:32:28.883Z,5.97
2023-05-20T03:34:58.228Z,5.70
2023-05-20T03:37:26.345Z,5.17
2023-05-20T03:39:54.957Z,5.50
2023-05-20T03:42:26.941Z,5.60
2023-05-20T03:44:56.309Z,5.37
2023-05-20T03:47:24.453Z,5.63
2023-05-20T03:49:53.972Z,5.53
2023-05-20T03:52:24.875Z,5.50
2023-05-20T03:54:55.087Z,6.00
2023-05-20T03:57:27.100Z,7.03
2023-05-20T03:59:55.420Z,6.87
2023-05-20T04:02:25.013Z,6.73
2023-05-20T04:04:57.864Z,7.53
2023-05-20T04:07:28.326Z,7.77
2023-05-20T04:09:59.991Z,7.57
2023-05-20T04:12:35.036Z,7.63
2023-05-20T04:15:06.141Z,7.90
2023-05-20T04:17:42.110Z,7.90
2023-05-20T04:20:13.992Z,7.63
2023-05-20T04:22:42.079Z,7.80
2023-05-20T04:25:10.625Z,8.13
2023-05-20T04:27:44.716Z,8.20
2023-05-20T04:30:16.933Z,8.77
2023-05-20T04:32:46.368Z,9.33
2023-05-20T04:35:17.264Z,8.97
2023-05-20T04:37:48.510Z,8.47
2023-05-20T04:40:17.262Z,8.60
2023-05-20T04:42:46.442Z,9.10
2023-05-20T04:45:14.844Z,8.67
2023-05-20T04:47:44.478Z,9.07
2023-05-20T04:50:13.516Z,8.20
2023-05-20T04:52:46.030Z,9.00
2023-05-20T04:55:16.069Z,8.57
2023-05-20T04:57:45.574Z,8.93
2023-05-20T05:00:15.623Z,9.90
2023-05-20T05:02:45.278Z,9.37
2023-05-20T05:05:13.612Z,9.60
2023-05-20T05:07:52.324Z,9.13
2023-05-20T05:10:21.981Z,9.17
2023-05-20T05:12:50.252Z,9.10
2023-05-20T05:15:18.842Z,9.83
2023-05-20T05:17:48.133Z,9.70
2023-05-20T05:20:16.478Z,10.13
2023-05-20T05:22:47.967Z,10.70
2023-05-20T05:25:18.726Z,9.67
2023-05-20T05:27:57.299Z,9.97
2023-05-20T05:30:25.571Z,9.17
2023-05-20T05:32:55.063Z,9.53
2023-05-20T05:35:25.310Z,10.30
2023-05-20T05:37:56.177Z,9.83
2023-05-20T05:40:26.368Z,10.73
2023-05-20T05:42:55.589Z,11.03
2023-05-20T05:45:25.755Z,10.90
2023-05-20T05:47:55.901Z,11.30
2023-05-20T05:50:25.508Z,11.30
2023-05-20T05:52:56.180Z,11.90
2023-05-20T05:55:27.460Z,11.83
2023-05-20T05:57:59.031Z,11.73
2023-05-20T06:00:30.923Z,11.90
2023-05-20T06:03:00.815Z,11.97
2023-05-20T06:05:29.773Z,11.13
2023-05-20T06:08:07.205Z,12.00
2023-05-20T06:10:35.380Z,11.40
2023-05-20T06:13:06.963Z,11.33
2023-05-20T06:19:23.621Z,12.07
2023-05-20T06:21:59.315Z,11.63
2023-05-20T06:24:28.962Z,12.50
2023-05-20T06:26:59.396Z,11.87
2023-05-20T06:29:27.928Z,12.63
2023-05-20T06:31:57.322Z,12.17
2023-05-20T06:34:27.785Z,12.57
2023-05-20T06:36:57.653Z,11.20
2023-05-20T06:39:31.689Z,12.13
2023-05-20T06:45:24.799Z,11.60
2023-05-20T06:48:06.892Z,12.23
2023-05-20T06:51:13.536Z,11.40
2023-05-20T06:53:46.679Z,11.27
2023-05-20T06:56:18.391Z,11.47
2023-05-20T06:58:46.660Z,12.10
2023-05-20T07:01:17.247Z,10.53
2023-05-20T07:03:50.772Z,10.80
2023-05-20T07:06:25.232Z,10.80
2023-05-20T07:12:56.310Z,9.27
2023-05-20T07:15:25.429Z,8.50
2023-05-20T07:17:55.463Z,8.87
2023-05-20T07:20:28.258Z,8.73
2023-05-20T07:23:01.334Z,8.10
2023-05-20T07:25:35.531Z,9.60
2023-05-20T07:28:07.241Z,8.07
2023-05-20T07:30:38.960Z,8.13
2023-05-20T07:33:29.826Z,8.23
2023-05-20T07:35:57.884Z,8.53
2023-05-20T07:38:26.098Z,7.97
2023-05-20T07:40:55.845Z,9.23
2023-05-20T07:43:25.523Z,8.77
2023-05-20T07:45:58.463Z,9.10
2023-05-20T07:54:51.819Z,8.90
2023-05-20T07:57:19.936Z,9.07
2023-05-20T07:59:49.431Z,8.93
2023-05-20T08:02:21.912Z,9.17
2023-05-20T08:04:51.926Z,9.70
2023-05-20T08:07:28.376Z,9.30
2023-05-20T08:09:58.983Z,8.97
2023-05-20T08:12:27.149Z,8.37
2023-05-20T08:15:02.898Z,10.00
2023-05-20T08:17:43.387Z,8.50
2023-05-20T08:20:17.136Z,8.30
2023-05-20T08:22:54.548Z,7.50
2023-05-20T08:25:35.990Z,8.03
2023-05-20T08:28:14.013Z,7.90
2023-05-20T08:30:43.725Z,7.47
2023-05-20T08:33:16.499Z,15.20
2023-05-20T08:36:03.284Z,8.00
2023-05-20T08:38:32.675Z,7.37
2023-05-20T08:41:03.828Z,7.30
2023-05-20T08:43:35.717Z,7.40
2023-05-20T08:46:06.988Z,7.17
2023-05-20T08:48:38.484Z,7.50
2023-05-20T08:51:11.872Z,8.17
2023-05-20T08:53:43.398Z,7.80
2023-05-20T08:56:14.198Z,9.30
2023-05-20T08:58:43.154Z,8.50
2023-05-20T09:01:45.408Z,8.53
2023-05-20T09:07:37.989Z,9.40
2023-05-20T09:10:08.822Z,9.73
2023-05-20T09:12:52.494Z,10.43
2023-05-20T09:15:21.604Z,9.67
2023-05-20T09:17:52.582Z,10.20
2023-05-20T09:20:24.206Z,9.90
2023-05-20T09:23:06.418Z,11.10
2023-05-20T09:26:06.340Z,9.87
2023-05-20T09:28:45.944Z,9.40
2023-05-20T09:31:19.723Z,9.57
2023-05-20T09:33:52.810Z,9.37
2023-05-20T09:36:24.918Z,10.10
2023-05-20T09:42:57.888Z,12.33
2023-05-20T09:45:29.612Z,11.87
2023-05-20T09:47:59.775Z,10.87
2023-05-20T09:50:36.887Z,11.93
2023-05-20T09:53:27.778Z,11.60
2023-05-20T09:55:57.472Z,11.37
2023-05-20T09:58:27.805Z,12.20
2023-05-20T10:00:57.504Z,12.53
2023-05-20T10:06:52.344Z,12.80
2023-05-20T10:09:32.774Z,13.65
2023-05-20T10:12:11.694Z,13.87
2023-05-20T10:14:55.962Z,13.83
2023-05-20T10:17:33.640Z,14.83
2023-05-20T10:23:02.100Z,12.67
2023-05-20T10:25:40.763Z,13.23
2023-05-20T10:29:11.506Z,13.67
2023-05-20T10:31:51.524Z,12.57
2023-05-20T10:34:21.133Z,13.23
2023-05-20T10:36:59.650Z,12.60
2023-05-20T10:39:29.066Z,12.23
2023-05-20T10:42:09.467Z,13.30
2023-05-20T10:44:44.371Z,11.93
2023-05-20T10:49:47.428Z,12.70
2023-05-20T10:52:19.405Z,12.73
2023-05-20T10:54:55.892Z,12.73
2023-05-20T10:57:26.265Z,12.90
2023-05-20T10:59:58.347Z,12.37
2023-05-20T11:02:33.970Z,13.23
2023-05-20T11:05:04.082Z,13.67
2023-05-20T11:07:34.208Z,12.20
2023-05-20T11:10:13.701Z,13.47
2023-05-20T11:12:44.955Z,14.87
2023-05-20T11:15:24.561Z,14.10
2023-05-20T11:17:57.684Z,14.23
2023-05-20T11:20:28.851Z,14.23
2023-05-20T11:22:58.945Z,13.57
2023-05-20T11:25:28.973Z,13.90
2023-05-20T11:28:00.994Z,15.03
2023-05-20T11:30:31.146Z,12.03
2023-05-20T11:36:04.891Z,12.53
2023-05-20T11:38:39.029Z,12.50
2023-05-20T11:41:07.335Z,10.60
2023-05-20T11:43:47.168Z,11.47
2023-05-20T11:46:15.753Z,12.30
2023-05-20T11:48:59.157Z,11.10
2023-05-20T11:51:32.548Z,11.00
2023-05-20T11:54:02.390Z,11.87
2023-05-20T11:56:31.371Z,12.13
2023-05-20T12:00:14.267Z,10.93
2023-05-20T12:03:08.029Z,11.73
2023-05-20T12:05:38.857Z,11.63
2023-05-20T12:08:42.392Z,12.00
2023-05-20T12:11:14.662Z,12.40
2023-05-20T12:13:44.246Z,12.87
2023-05-20T12:16:15.481Z,12.20
2023-05-20T12:18:45.705Z,11.60
2023-05-20T12:21:13.991Z,12.67
2023-05-20T12:23:47.478Z,10.40
2023-05-20T12:26:16.041Z,10.87
2023-05-20T12:29:18.556Z,10.07
2023-05-20T12:31:46.693Z,10.20
2023-05-20T12:34:16.090Z,11.23
2023-05-20T12:37:19.858Z,12.63
2023-05-20T12:43:56.881Z,12.60
2023-05-20T12:46:37.171Z,12.27
2023-05-20T12:49:14.302Z,12.63
2023-05-20T12:51:43.588Z,10.90
2023-05-20T12:54:37.823Z,11.37
2023-05-20T12:57:10.867Z,11.43
2023-05-20T12:59:41.690Z,13.07
2023-05-20T13:02:14.174Z,12.40
2023-05-20T13:04:52.321Z,11.97
2023-05-20T13:07:22.053Z,11.00
2023-05-20T13:09:53.149Z,11.47
2023-05-20T13:12:22.607Z,11.90
2023-05-20T13:15:02.504Z,11.43
2023-05-20T13:17:33.540Z,12.10
2023-05-20T13:23:55.245Z,12.30
2023-05-20T13:26:23.602Z,12.03
2023-05-20T13:28:51.829Z,13.37
2023-05-20T13:31:21.548Z,11.40
2023-05-20T13:33:49.701Z,11.33
2023-05-20T13:36:19.539Z,11.10
2023-05-20T13:38:48.188Z,11.40
2023-05-20T13:41:18.454Z,11.23
2023-05-20T13:44:16.534Z,11.77
2023-05-20T13:46:47.771Z,11.07
2023-05-20T13:49:20.831Z,11.33
2023-05-20T13:51:48.935Z,11.80
2023-05-20T13:54:18.627Z,11.13
2023-05-20T13:57:24.092Z,10.53
2023-05-20T14:00:07.808Z,11.03
2023-05-20T14:02:56.855Z,11.47
2023-05-20T14:05:33.368Z,10.10
2023-05-20T14:08:10.099Z,11.80
2023-05-20T14:10:39.573Z,11.10
2023-05-20T14:13:19.480Z,11.13
2023-05-20T14:15:49.332Z,9.57
2023-05-20T14:18:24.534Z,10.70
2023-05-20T14:20:54.034Z,10.57
2023-05-20T14:23:31.803Z,10.27
2023-05-20T14:26:03.330Z,10.50
2023-05-20T14:28:35.882Z,9.80
2023-05-20T14:31:19.308Z,10.93
2023-05-20T14:34:24.016Z,9.87
2023-05-20T14:37:13.377Z,10.40
2023-05-20T14:39:59.868Z,10.53
2023-05-20T14:42:59.338Z,10.53
2023-05-20T14:45:45.788Z,10.47
2023-05-20T14:48:19.459Z,11.57
2023-05-20T14:50:52.139Z,11.80
2023-05-20T14:53:23.387Z,11.20
2023-05-20T14:55:56.949Z,11.30
2023-05-20T14:59:03.194Z,12.20
2023-05-20T15:01:33.213Z,12.10
2023-05-20T15:04:05.194Z,11.70
2023-05-20T15:06:59.789Z,11.10
2023-05-20T15:09:44.639Z,11.47
2023-05-20T15:12:22.508Z,12.00
2023-05-20T15:15:14.183Z,11.60
2023-05-20T15:17:48.218Z,12.47
2023-05-20T15:20:29.339Z,13.75
2023-05-20T15:23:17.686Z,11.80
2023-05-20T15:26:03.371Z,12.70
2023-05-20T15:28:42.668Z,12.07
2023-05-20T15:31:19.828Z,12.17
2023-05-20T15:33:50.702Z,11.97
2023-05-20T15:36:46.792Z,13.33
2023-05-20T15:39:33.027Z,11.73
2023-05-20T15:42:17.326Z,12.37
2023-05-20T15:45:05.130Z,12.70
2023-05-20T15:47:40.450Z,12.17
2023-05-20T15:50:16.349Z,12.50
2023-05-20T15:52:56.067Z,12.43
2023-05-20T15:55:27.399Z,12.33
2023-05-20T15:57:55.773Z,12.63
2023-05-20T16:00:26.643Z,14.70
2023-05-20T16:02:57.229Z,13.47
2023-05-20T16:05:25.734Z,13.53
2023-05-20T16:11:59.464Z,12.57
2023-05-20T16:14:39.405Z,12.87
2023-05-20T16:17:07.614Z,12.80
2023-05-20T16:19:36.585Z,13.10
2023-05-20T16:22:05.950Z,12.50
2023-05-20T16:24:34.780Z,12.40
2023-05-20T16:27:11.536Z,14.70
2023-05-20T16:29:41.052Z,14.37
2023-05-20T16:32:09.393Z,13.67
2023-05-20T16:34:39.393Z,13.20
2023-05-20T16:37:07.618Z,12.63
2023-05-20T16:39:36.419Z,13.80
2023-05-20T16:42:07.415Z,13.67
2023-05-20T16:44:38.705Z,13.13
2023-05-20T16:47:36.627Z,13.97
2023-05-20T16:50:09.510Z,13.10
2023-05-20T16:52:41.933Z,14.00
2023-05-20T16:55:52.007Z,12.83
2023-05-20T16:58:36.842Z,13.97
2023-05-20T17:01:05.402Z,13.90
2023-05-20T17:03:40.494Z,12.87
2023-05-20T17:06:10.045Z,13.17
2023-05-20T17:08:38.326Z,13.50
2023-05-20T17:11:06.803Z,14.00
2023-05-20T17:13:42.156Z,13.50
2023-05-20T17:16:12.159Z,13.77
2023-05-20T17:18:46.060Z,13.37
2023-05-20T17:21:20.251Z,13.93
2023-05-20T17:23:50.131Z,13.03
2023-05-20T17:26:18.761Z,14.20
2023-05-20T17:28:46.929Z,14.70
2023-05-20T17:31:15.333Z,14.10
2023-05-20T17:33:45.265Z,13.47
2023-05-20T17:36:18.505Z,13.23
2023-05-20T17:38:48.118Z,13.40
2023-05-20T17:44:14.573Z,12.87
2023-05-20T17:46:49.292Z,12.83
2023-05-20T17:49:20.004Z,12.77
2023-05-20T17:51:52.055Z,13.20
2023-05-20T17:55:27.966Z,13.43
2023-05-20T17:58:25.255Z,13.10
2023-05-20T18:00:53.772Z,14.00
2023-05-20T18:03:25.341Z,13.20
2023-05-20T18:05:55.923Z,13.67
2023-05-20T18:08:27.852Z,13.20
2023-05-20T18:10:57.516Z,13.10
2023-05-20T18:13:26.705Z,13.17
2023-05-20T18:15:59.409Z,13.80
2023-05-20T18:18:31.000Z,12.83
2023-05-20T18:21:01.566Z,13.33
2023-05-20T18:23:29.658Z,13.77
2023-05-20T18:25:59.190Z,13.10
2023-05-20T18:28:28.733Z,13.20
2023-05-20T18:31:00.992Z,13.33
2023-05-20T18:33:35.082Z,13.63
2023-05-20T18:39:55.260Z,12.50
2023-05-20T18:42:45.646Z,12.50
2023-05-20T18:45:14.388Z,12.07
2023-05-20T18:47:43.720Z,12.53
2023-05-20T18:50:15.162Z,12.63
2023-05-20T18:52:48.616Z,12.77
2023-05-20T18:55:20.496Z,12.93
2023-05-20T18:57:49.796Z,13.47
2023-05-20T19:00:36.153Z,13.67
2023-05-20T19:03:22.334Z,13.07
2023-05-20T19:06:07.406Z,12.63
2023-05-20T19:08:42.422Z,13.23
2023-05-20T19:11:11.441Z,12.87
2023-05-20T19:13:50.385Z,13.33
2023-05-20T19:16:21.848Z,12.43
2023-05-20T19:18:53.568Z,12.70
2023-05-20T19:21:23.903Z,13.00
2023-05-20T19:24:15.159Z,12.83
2023-05-20T19:26:44.473Z,13.43
2023-05-20T19:29:15.075Z,14.07
2023-05-20T19:31:44.836Z,14.00
2023-05-20T19:34:18.808Z,13.13
2023-05-20T19:36:47.912Z,13.37
2023-05-20T19:39:18.190Z,13.60
2023-05-20T19:41:48.896Z,13.37
2023-05-20T19:44:18.973Z,13.47
2023-05-20T19:46:50.175Z,13.13
2023-05-20T19:49:19.849Z,13.20
2023-05-20T19:51:53.734Z,13.33
2023-05-20T19:54:23.255Z,12.77
2023-05-20T19:56:51.446Z,13.67
2023-05-20T19:59:20.184Z,12.70
2023-05-20T20:01:50.690Z,13.97
2023-05-20T20:04:21.532Z,13.67
2023-05-20T20:06:57.176Z,13.73
2023-05-20T20:09:29.335Z,13.30
2023-05-20T20:11:57.609Z,13.73
2023-05-20T20:14:30.472Z,12.70
2023-05-20T20:17:03.892Z,13.70
2023-05-20T20:19:34.153Z,12.77
2023-05-20T20:22:04.842Z,13.63
2023-05-20T20:24:39.493Z,14.17
2023-05-20T20:27:08.764Z,14.37
2023-05-20T20:29:37.143Z,14.03
2023-05-20T20:32:07.644Z,14.67
2023-05-20T20:34:46.458Z,13.80
2023-05-20T20:37:17.935Z,14.27
2023-05-20T20:39:50.041Z,12.57
2023-05-20T20:42:22.350Z,14.83
2023-05-20T20:44:58.427Z,13.93
2023-05-20T20:47:31.597Z,13.77
2023-05-20T20:50:00.071Z,14.07
2023-05-20T20:52:28.420Z,14.50
2023-05-20T20:54:59.996Z,15.33
2023-05-20T20:57:32.178Z,15.07
2023-05-20T21:00:10.860Z,13.90
2023-05-20T21:02:39.460Z,13.60
2023-05-20T21:05:08.449Z,14.83
2023-05-20T21:07:39.186Z,15.17
2023-05-20T21:10:16.271Z,15.60
2023-05-20T21:12:45.162Z,13.83
2023-05-20T21:15:16.543Z,14.47
2023-05-20T21:17:45.128Z,13.87
2023-05-20T21:20:15.509Z,14.10
2023-05-20T21:22:45.624Z,14.67
2023-05-20T21:25:19.163Z,14.80
2023-05-20T21:27:56.669Z,15.07
2023-05-20T21:30:25.565Z,15.03
2023-05-20T21:32:58.127Z,14.80
2023-05-20T21:35:29.653Z,14.43
2023-05-20T21:37:58.382Z,14.20
2023-05-20T21:40:29.561Z,14.97
2023-05-20T21:43:00.530Z,14.57
2023-05-20T21:45:47.430Z,14.57
2023-05-20T21:48:20.021Z,13.93
2023-05-20T21:50:49.616Z,13.80
2023-05-20T21:53:20.508Z,13.53
2023-05-20T21:55:51.585Z,13.57
2023-05-20T21:58:24.556Z,14.40
2023-05-20T22:00:53.482Z,14.20
2023-05-20T22:03:22.704Z,14.07
2023-05-20T22:09:08.280Z,14.37
2023-05-20T22:11:49.284Z,14.07
2023-05-20T22:14:20.290Z,13.90
2023-05-20T22:16:58.671Z,13.60
2023-05-20T22:19:28.259Z,13.87
2023-05-20T22:21:56.681Z,13.60
2023-05-20T22:24:36.779Z,13.40
2023-05-20T22:27:10.003Z,13.83
2023-05-20T22:29:39.922Z,14.57
2023-05-20T22:32:09.100Z,13.93
2023-05-20T22:34:40.335Z,14.07
2023-05-20T22:37:09.553Z,14.53
2023-05-20T22:39:41.003Z,13.87
2023-05-20T22:42:12.094Z,13.17
2023-05-20T22:44:43.717Z,14.53
2023-05-20T22:47:15.287Z,13.77
2023-05-20T22:49:45.014Z,14.57
2023-05-20T22:52:14.944Z,13.87
2023-05-20T22:54:44.994Z,14.03
2023-05-20T22:57:23.123Z,13.97
2023-05-20T22:59:54.119Z,15.00
2023-05-20T23:05:05.234Z,13.50
2023-05-20T23:07:33.388Z,14.10
2023-05-20T23:10:04.786Z,14.90
2023-05-20T23:12:37.021Z,14.97
2023-05-20T23:15:12.376Z,14.30
2023-05-20T23:17:52.219Z,13.50
2023-05-20T23:20:26.376Z,14.20
2023-05-20T23:23:05.657Z,13.77
2023-05-20T23:28:37.056Z,15.30
2023-05-20T23:31:12.083Z,14.57
2023-05-20T23:33:44.308Z,14.97
2023-05-20T23:39:51.214Z,14.37
2023-05-20T23:42:22.702Z,14.90
2023-05-20T23:44:55.511Z,14.70
2023-05-20T23:47:32.106Z,14.87
2023-05-20T23:50:05.439Z,15.10
2023-05-20T23:52:33.844Z,15.10
2023-05-20T23:55:02.098Z,14.70
2023-05-20T23:57:37.308Z,14.77
